Time;durP1;ratioP1;P1;durP2;ratioP2;P2;SDS_P1;SDS_P2;PMS_P1;PMS_P2;Temp;Humidity;BMP_temperature;BMP_pressure;BME280_temperature;BME280_humidity;BME280_pressure;Samples;Min_cycle;Max_cycle;Signal;HPM_P1;HPM_P2
2022/05/29 00:01:16;;;;;;;1.70;1.10;;;;;;;;;;5072163;28;20529;-82
2022/05/29 00:03:43;;;;;;;2.80;1.30;;;;;;;;;;5072065;28;20420;-82
2022/05/29 00:06:10;;;;;;;2.70;1.20;;;;;;;;;;5072048;28;20430;-82
2022/05/29 00:08:38;;;;;;;2.30;1.25;;;;;;;;;;5072143;28;20383;-82
2022/05/29 00:11:04;;;;;;;2.33;1.08;;;;;;;;;;5051164;28;20507;-83
2022/05/29 00:13:30;;;;;;;2.60;1.10;;;;;;;;;;5066808;28;20592;-83
2022/05/29 00:15:56;;;;;;;3.23;1.17;;;;;;;;;;5072024;28;20920;-83
2022/05/29 00:18:22;;;;;;;2.33;1.10;;;;;;;;;;5072059;28;20383;-83
2022/05/29 00:20:52;;;;;;;3.22;1.25;;;;;;;;;;5071901;28;20380;-82
2022/05/29 00:23:19;;;;;;;1.42;0.90;;;;;;;;;;5070850;28;20390;-82
2022/05/29 00:25:45;;;;;;;2.15;1.00;;;;;;;;;;5055182;28;20410;-82
2022/05/29 00:28:11;;;;;;;2.20;1.10;;;;;;;;;;5071883;28;20379;-82
2022/05/29 00:30:37;;;;;;;1.92;0.95;;;;;;;;;;5071824;28;20465;-82
2022/05/29 00:33:05;;;;;;;3.20;1.30;;;;;;;;;;5053795;28;20450;-82
2022/05/29 00:35:31;;;;;;;2.20;1.00;;;;;;;;;;5057615;28;20381;-82
2022/05/29 00:37:57;;;;;;;2.55;1.10;;;;;;;;;;5071875;28;20434;-82
2022/05/29 00:40:23;;;;;;;1.92;1.00;;;;;;;;;;5072024;28;20841;-82
2022/05/29 00:42:49;;;;;;;1.83;1.00;;;;;;;;;;5054445;28;20383;-82
2022/05/29 00:45:19;;;;;;;2.65;0.88;;;;;;;;;;5071659;28;20881;-82
2022/05/29 00:47:45;;;;;;;4.30;1.20;;;;;;;;;;5071668;28;20883;-82
2022/05/29 00:50:11;;;;;;;1.90;1.10;;;;;;;;;;5071974;28;20380;-82
2022/05/29 00:52:37;;;;;;;1.58;1.10;;;;;;;;;;5071497;28;20380;-82
2022/05/29 00:55:11;;;;;;;2.17;1.00;;;;;;;;;;5056660;28;20384;-82
2022/05/29 00:57:42;;;;;;;1.83;0.90;;;;;;;;;;5067762;28;20785;-82
2022/05/29 01:00:14;;;;;;;2.33;1.00;;;;;;;;;;5075302;28;20471;-82
2022/05/29 01:02:40;;;;;;;2.17;1.10;;;;;;;;;;5058824;28;20374;-82
2022/05/29 01:05:07;;;;;;;2.03;1.00;;;;;;;;;;5070935;28;20394;-82
2022/05/29 01:07:34;;;;;;;2.35;1.10;;;;;;;;;;5075220;28;20379;-82
2022/05/29 01:10:00;;;;;;;2.30;1.00;;;;;;;;;;5075077;28;20368;-82
2022/05/29 01:12:38;;;;;;;2.53;1.00;;;;;;;;;;5074512;28;20380;-82
2022/05/29 01:15:10;;;;;;;2.10;0.90;;;;;;;;;;5072954;28;20422;-82
2022/05/29 01:17:43;;;;;;;1.83;1.13;;;;;;;;;;5072972;28;20522;-82
2022/05/29 01:20:12;;;;;;;1.87;1.07;;;;;;;;;;5072945;28;20384;-82
2022/05/29 01:22:44;;;;;;;1.88;1.05;;;;;;;;;;5072805;28;20387;-82
2022/05/29 01:25:13;;;;;;;2.00;0.98;;;;;;;;;;5055203;28;20861;-82
2022/05/29 01:27:59;;;;;;;1.33;0.88;;;;;;;;;;5073196;28;20383;-82
2022/05/29 01:30:26;;;;;;;2.88;1.13;;;;;;;;;;5074746;28;20372;-82
2022/05/29 01:33:09;;;;;;;3.25;1.40;;;;;;;;;;5074702;28;20384;-82
2022/05/29 01:35:36;;;;;;;1.60;1.20;;;;;;;;;;5056869;28;20494;-82
2022/05/29 01:38:09;;;;;;;1.92;1.00;;;;;;;;;;5056981;28;20409;-82
2022/05/29 01:40:40;;;;;;;3.50;1.30;;;;;;;;;;5074610;28;20376;-82
2022/05/29 01:43:21;;;;;;;1.77;1.10;;;;;;;;;;5057358;28;20372;-82
2022/05/29 01:45:56;;;;;;;2.92;1.10;;;;;;;;;;5074549;28;20883;-82
2022/05/29 01:48:28;;;;;;;2.55;1.20;;;;;;;;;;5074614;28;20384;-82
2022/05/29 01:50:56;;;;;;;3.08;1.20;;;;;;;;;;5074458;28;20376;-83
2022/05/29 01:53:26;;;;;;;2.45;1.10;;;;;;;;;;5074351;28;20932;-82
2022/05/29 01:55:53;;;;;;;2.25;1.20;;;;;;;;;;5074193;28;20432;-82
2022/05/29 01:58:23;;;;;;;2.72;1.10;;;;;;;;;;5074253;28;20470;-82
2022/05/29 02:00:50;;;;;;;1.60;0.90;;;;;;;;;;5074240;28;20465;-82
2022/05/29 02:03:19;;;;;;;1.65;0.98;;;;;;;;;;5056039;28;20403;-83
2022/05/29 02:05:52;;;;;;;2.05;0.95;;;;;;;;;;5073983;28;20375;-82
2022/05/29 02:08:20;;;;;;;2.20;1.05;;;;;;;;;;5074277;28;20459;-82
2022/05/29 02:10:55;;;;;;;2.00;1.10;;;;;;;;;;5074050;28;20372;-82
2022/05/29 02:13:24;;;;;;;1.65;1.00;;;;;;;;;;5061759;28;20381;-82
2022/05/29 02:15:52;;;;;;;2.70;1.00;;;;;;;;;;5049189;28;20428;-82
2022/05/29 02:18:21;;;;;;;2.03;1.00;;;;;;;;;;5066215;28;20845;-82
2022/05/29 02:20:49;;;;;;;1.98;0.90;;;;;;;;;;5073808;28;20471;-82
2022/05/29 02:23:31;;;;;;;3.40;1.00;;;;;;;;;;5071248;28;20383;-82
2022/05/29 02:25:58;;;;;;;2.60;1.10;;;;;;;;;;5040610;28;20431;-82
2022/05/29 02:28:44;;;;;;;2.70;1.25;;;;;;;;;;5059715;28;20376;-81
2022/05/29 02:31:23;;;;;;;2.25;1.10;;;;;;;;;;5071808;28;20781;-82
2022/05/29 02:33:49;;;;;;;1.83;1.00;;;;;;;;;;5072489;28;20462;-83
2022/05/29 02:36:23;;;;;;;2.67;1.20;;;;;;;;;;5073495;28;20498;-82
2022/05/29 02:38:58;;;;;;;1.50;0.82;;;;;;;;;;5073531;28;20419;-82
2022/05/29 02:41:30;;;;;;;2.77;1.13;;;;;;;;;;5070602;28;20509;-82
2022/05/29 02:44:08;;;;;;;2.30;1.00;;;;;;;;;;5042635;28;20459;-82
2022/05/29 02:47:00;;;;;;;1.88;1.00;;;;;;;;;;5073711;28;20371;-82
2022/05/29 02:49:32;;;;;;;3.42;1.00;;;;;;;;;;5068651;28;20406;-82
2022/05/29 02:52:02;;;;;;;2.05;1.02;;;;;;;;;;5073288;28;20376;-82
2022/05/29 02:54:30;;;;;;;2.95;1.10;;;;;;;;;;5073702;28;20467;-82
2022/05/29 02:56:57;;;;;;;2.10;1.00;;;;;;;;;;5055394;28;20407;-82
2022/05/29 02:59:24;;;;;;;2.60;1.27;;;;;;;;;;5040776;28;20763;-82
2022/05/29 03:02:11;;;;;;;1.83;1.10;;;;;;;;;;5044951;28;20475;-82
2022/05/29 03:04:52;;;;;;;1.50;0.90;;;;;;;;;;5042021;28;20379;-82
2022/05/29 03:07:18;;;;;;;1.67;1.10;;;;;;;;;;5050120;28;20380;-82
2022/05/29 03:09:57;;;;;;;2.22;1.10;;;;;;;;;;5049795;28;20388;-82
2022/05/29 03:12:23;;;;;;;1.92;1.02;;;;;;;;;;5036991;28;20383;-83
2022/05/29 03:15:05;;;;;;;1.77;1.20;;;;;;;;;;5030483;28;20387;-82
2022/05/29 03:17:34;;;;;;;2.27;1.00;;;;;;;;;;5047509;28;20391;-82
2022/05/29 03:20:06;;;;;;;2.53;1.08;;;;;;;;;;5071519;28;20387;-83
2022/05/29 03:22:51;;;;;;;2.30;1.23;;;;;;;;;;5072088;28;20462;-82
2022/05/29 03:25:28;;;;;;;2.77;1.20;;;;;;;;;;5072580;28;20364;-83
2022/05/29 03:27:55;;;;;;;1.38;0.90;;;;;;;;;;5073030;28;20415;-82
2022/05/29 03:30:21;;;;;;;1.87;1.13;;;;;;;;;;5072608;28;20448;-82
2022/05/29 03:32:48;;;;;;;2.65;1.25;;;;;;;;;;5072389;28;20382;-83
2022/05/29 03:35:28;;;;;;;2.20;1.00;;;;;;;;;;5072408;28;20387;-83
2022/05/29 03:37:55;;;;;;;2.25;1.10;;;;;;;;;;5072401;28;20384;-83
2022/05/29 03:40:21;;;;;;;2.53;1.10;;;;;;;;;;5072738;28;20383;-82
2022/05/29 03:42:47;;;;;;;2.22;1.13;;;;;;;;;;5037306;28;20792;-83
2022/05/29 03:45:14;;;;;;;3.08;1.10;;;;;;;;;;5072319;28;20406;-82
2022/05/29 03:47:40;;;;;;;1.98;1.30;;;;;;;;;;5072233;28;20376;-82
2022/05/29 03:50:07;;;;;;;2.53;1.20;;;;;;;;;;5072336;28;20459;-82
2022/05/29 03:52:34;;;;;;;1.92;1.02;;;;;;;;;;5072128;28;20433;-82
2022/05/29 03:55:00;;;;;;;2.37;1.10;;;;;;;;;;5072224;28;20372;-82
2022/05/29 03:57:26;;;;;;;1.60;1.10;;;;;;;;;;5072223;28;20392;-82
2022/05/29 03:59:52;;;;;;;2.10;1.10;;;;;;;;;;5072194;28;20499;-82
2022/05/29 04:02:18;;;;;;;3.20;1.20;;;;;;;;;;5072086;28;20867;-82
2022/05/29 04:04:44;;;;;;;1.95;1.02;;;;;;;;;;5072088;28;20376;-82
2022/05/29 04:07:10;;;;;;;2.10;1.10;;;;;;;;;;5072073;28;20698;-82
2022/05/29 04:12:21;;;;;;;2.13;1.10;;;;;;;;;;5057397;28;20408;-82
2022/05/29 04:14:48;;;;;;;3.25;1.10;;;;;;;;;;5059009;28;20374;-82
2022/05/29 04:17:15;;;;;;;2.77;1.10;;;;;;;;;;5057542;28;20495;-82
2022/05/29 04:19:41;;;;;;;2.13;1.00;;;;;;;;;;5057384;28;20458;-82
2022/05/29 04:22:08;;;;;;;2.70;0.83;;;;;;;;;;5046750;28;20393;-82
2022/05/29 04:24:34;;;;;;;2.30;1.02;;;;;;;;;;5071062;28;20463;-82
2022/05/29 04:27:00;;;;;;;1.90;1.00;;;;;;;;;;5071976;28;20817;-82
2022/05/29 04:29:26;;;;;;;2.80;1.00;;;;;;;;;;5076086;28;20385;-82
2022/05/29 04:34:37;;;;;;;1.95;1.00;;;;;;;;;;5076084;28;20366;-82
2022/05/29 04:37:04;;;;;;;4.05;1.00;;;;;;;;;;5075752;28;20802;-82
2022/05/29 04:39:34;;;;;;;2.05;1.00;;;;;;;;;;5075949;28;20376;-82
2022/05/29 04:42:00;;;;;;;2.08;1.17;;;;;;;;;;5064106;28;20832;-82
2022/05/29 04:44:26;;;;;;;3.03;1.43;;;;;;;;;;5063441;28;20396;-82
2022/05/29 04:46:52;;;;;;;1.73;1.10;;;;;;;;;;5053591;28;20454;-82
2022/05/29 04:49:18;;;;;;;2.40;1.20;;;;;;;;;;5070880;28;20380;-83
2022/05/29 04:51:44;;;;;;;2.45;1.17;;;;;;;;;;5075498;28;20391;-82
2022/05/29 04:54:11;;;;;;;1.95;1.05;;;;;;;;;;5075528;28;20844;-82
2022/05/29 04:56:37;;;;;;;3.33;1.70;;;;;;;;;;5075266;28;20886;-82
2022/05/29 04:59:03;;;;;;;3.58;1.70;;;;;;;;;;5075304;28;20483;-83
2022/05/29 05:01:29;;;;;;;2.83;1.30;;;;;;;;;;5075419;28;20852;-83
2022/05/29 05:03:55;;;;;;;2.80;1.35;;;;;;;;;;5069982;28;20386;-83
2022/05/29 05:06:21;;;;;;;2.20;1.00;;;;;;;;;;5075291;28;20437;-83
2022/05/29 05:08:47;;;;;;;2.55;1.00;;;;;;;;;;5052651;28;20546;-83
2022/05/29 05:11:13;;;;;;;1.75;1.00;;;;;;;;;;5045460;28;20472;-83
2022/05/29 05:13:39;;;;;;;2.20;1.15;;;;;;;;;;5042626;28;20385;-83
2022/05/29 05:16:05;;;;;;;3.90;1.27;;;;;;;;;;5051498;28;20911;-84
2022/05/29 05:18:32;;;;;;;3.30;1.27;;;;;;;;;;5042861;28;20390;-87
2022/05/29 05:20:58;;;;;;;1.75;0.98;;;;;;;;;;5057331;28;20372;-89
2022/05/29 05:23:24;;;;;;;2.92;1.10;;;;;;;;;;5057374;28;20383;-88
2022/05/29 05:25:50;;;;;;;1.27;0.95;;;;;;;;;;5053221;28;20469;-89
2022/05/29 05:28:16;;;;;;;2.50;1.15;;;;;;;;;;5064207;28;20848;-91
2022/05/29 05:30:42;;;;;;;1.98;1.00;;;;;;;;;;5054574;28;20406;-92
2022/05/29 05:33:08;;;;;;;2.80;1.20;;;;;;;;;;5065808;28;20868;-92
2022/05/29 05:35:34;;;;;;;2.75;1.30;;;;;;;;;;5056262;28;20411;-91
2022/05/29 05:38:00;;;;;;;1.98;1.10;;;;;;;;;;5035847;28;20395;-90
2022/05/29 05:40:26;;;;;;;2.83;1.20;;;;;;;;;;5063287;28;20464;-90
2022/05/29 05:42:52;;;;;;;2.75;1.00;;;;;;;;;;5052024;28;20468;-89
2022/05/29 05:45:18;;;;;;;1.80;1.00;;;;;;;;;;5056295;28;20896;-91
2022/05/29 05:47:44;;;;;;;3.35;1.10;;;;;;;;;;5057300;28;20459;-89
2022/05/29 05:50:10;;;;;;;2.75;1.10;;;;;;;;;;5048456;28;20381;-89
2022/05/29 05:52:37;;;;;;;2.42;1.42;;;;;;;;;;5069171;28;20883;-89
2022/05/29 05:55:04;;;;;;;2.97;1.23;;;;;;;;;;5057017;28;20472;-88
2022/05/29 05:57:30;;;;;;;1.92;1.15;;;;;;;;;;5074365;28;20392;-88
2022/05/29 05:59:56;;;;;;;2.40;1.17;;;;;;;;;;5073343;28;20477;-89
2022/05/29 06:02:23;;;;;;;4.00;1.50;;;;;;;;;;5043400;28;20888;-90
2022/05/29 06:04:49;;;;;;;2.05;1.15;;;;;;;;;;5065992;28;20392;-89
2022/05/29 06:07:15;;;;;;;2.08;0.93;;;;;;;;;;5040587;28;20905;-89
2022/05/29 06:09:42;;;;;;;2.42;1.08;;;;;;;;;;5028261;28;20390;-89
2022/05/29 06:12:08;;;;;;;3.03;1.08;;;;;;;;;;5024513;28;20387;-90
2022/05/29 06:14:35;;;;;;;2.10;0.90;;;;;;;;;;5053250;28;20376;-87
2022/05/29 06:17:01;;;;;;;2.53;0.90;;;;;;;;;;5064024;28;20411;-89
2022/05/29 06:19:27;;;;;;;2.00;1.10;;;;;;;;;;5046078;28;21166;-89
2022/05/29 06:21:53;;;;;;;1.50;0.70;;;;;;;;;;5039903;28;20500;-89
2022/05/29 06:24:19;;;;;;;2.42;1.05;;;;;;;;;;5049372;28;20466;-88
2022/05/29 06:26:45;;;;;;;2.23;1.10;;;;;;;;;;5038974;28;20462;-89
2022/05/29 06:29:11;;;;;;;2.75;1.13;;;;;;;;;;5035820;28;20449;-88
2022/05/29 06:31:38;;;;;;;2.40;1.08;;;;;;;;;;5033328;28;20395;-90
2022/05/29 06:34:04;;;;;;;1.45;0.90;;;;;;;;;;5046397;28;20904;-88
2022/05/29 06:36:30;;;;;;;4.17;1.33;;;;;;;;;;5061826;28;20395;-88
2022/05/29 06:38:58;;;;;;;2.40;1.20;;;;;;;;;;5071755;28;20372;-88
2022/05/29 06:41:25;;;;;;;2.85;1.13;;;;;;;;;;5033886;28;20541;-89
2022/05/29 06:43:51;;;;;;;2.30;1.15;;;;;;;;;;5025501;28;20930;-87
2022/05/29 06:46:17;;;;;;;2.95;1.23;;;;;;;;;;5071843;28;20376;-87
2022/05/29 06:48:43;;;;;;;3.60;1.35;;;;;;;;;;5061433;28;20402;-88
2022/05/29 06:51:22;;;;;;;1.92;0.98;;;;;;;;;;5047770;28;20419;-86
2022/05/29 06:53:52;;;;;;;5.15;1.13;;;;;;;;;;5053475;28;20793;-88
2022/05/29 06:56:19;;;;;;;1.50;1.05;;;;;;;;;;5060178;28;20412;-88
2022/05/29 06:58:46;;;;;;;2.20;1.20;;;;;;;;;;5072471;28;20784;-84
2022/05/29 07:06:59;;;;;;;2.03;1.10;;;;;;;;;;5072739;28;20454;-85
2022/05/29 07:09:25;;;;;;;2.20;1.08;;;;;;;;;;5072733;28;20376;-87
2022/05/29 07:11:54;;;;;;;2.77;1.13;;;;;;;;;;5072266;28;20454;-86
2022/05/29 07:14:20;;;;;;;3.25;1.63;;;;;;;;;;5060335;28;20476;-86
2022/05/29 07:16:46;;;;;;;2.40;1.20;;;;;;;;;;5066239;28;20876;-86
2022/05/29 07:19:13;;;;;;;2.35;1.10;;;;;;;;;;5073020;28;20390;-87
2022/05/29 07:21:40;;;;;;;1.83;1.30;;;;;;;;;;5069022;28;21021;-87
2022/05/29 07:24:06;;;;;;;2.50;1.00;;;;;;;;;;5049621;28;20888;-88
2022/05/29 07:26:32;;;;;;;2.70;1.30;;;;;;;;;;5047037;28;20405;-88
2022/05/29 07:28:58;;;;;;;2.95;1.30;;;;;;;;;;5051485;28;20469;-89
2022/05/29 07:31:25;;;;;;;3.65;1.20;;;;;;;;;;5060511;28;20466;-87
2022/05/29 07:33:51;;;;;;;3.60;1.35;;;;;;;;;;5060043;28;20378;-89
2022/05/29 07:36:21;;;;;;;2.80;1.07;;;;;;;;;;5058694;28;20498;-89
2022/05/29 07:38:47;;;;;;;3.58;1.20;;;;;;;;;;5056108;28;20373;-88
2022/05/29 07:43:59;;;;;;;2.13;1.30;;;;;;;;;;5047834;28;20386;-89
2022/05/29 07:46:25;;;;;;;1.33;1.10;;;;;;;;;;5043864;28;20383;-89
2022/05/29 07:48:51;;;;;;;2.63;1.30;;;;;;;;;;5069430;28;20375;-88
2022/05/29 07:51:17;;;;;;;3.97;1.10;;;;;;;;;;5070456;28;20849;-90
2022/05/29 07:53:44;;;;;;;3.45;1.30;;;;;;;;;;5071930;28;20394;-87
2022/05/29 07:56:10;;;;;;;2.55;1.20;;;;;;;;;;5059809;28;20496;-89
2022/05/29 07:58:38;;;;;;;2.90;1.02;;;;;;;;;;5061518;28;20376;-89
2022/05/29 08:01:05;;;;;;;2.65;1.10;;;;;;;;;;5061539;28;20376;-85
2022/05/29 08:03:32;;;;;;;4.13;1.20;;;;;;;;;;5054256;28;20365;-88
2022/05/29 08:05:58;;;;;;;2.45;1.15;;;;;;;;;;5068443;28;20869;-88
2022/05/29 08:08:24;;;;;;;4.63;1.30;;;;;;;;;;5067277;28;20388;-88
2022/05/29 08:10:51;;;;;;;1.90;0.90;;;;;;;;;;5053884;28;20476;-88
2022/05/29 08:13:17;;;;;;;1.92;0.90;;;;;;;;;;5062972;28;20849;-89
2022/05/29 08:15:43;;;;;;;2.25;0.95;;;;;;;;;;5065897;28;20817;-90
2022/05/29 08:18:09;;;;;;;1.85;0.90;;;;;;;;;;5061987;28;20372;-89
2022/05/29 08:20:36;;;;;;;3.28;0.90;;;;;;;;;;5056641;28;20888;-88
2022/05/29 08:23:03;;;;;;;3.20;1.10;;;;;;;;;;5061650;28;20389;-88
2022/05/29 08:30:58;;;;;;;3.20;1.15;;;;;;;;;;5042282;28;21167;-88
2022/05/29 08:33:29;;;;;;;2.33;1.20;;;;;;;;;;5034641;28;20379;-88
2022/05/29 08:35:57;;;;;;;2.50;0.98;;;;;;;;;;5034770;28;20412;-88
2022/05/29 08:38:23;;;;;;;3.33;1.17;;;;;;;;;;5058800;28;20376;-86
2022/05/29 08:40:51;;;;;;;3.45;1.17;;;;;;;;;;5071731;28;20391;-87
2022/05/29 08:43:37;;;;;;;2.03;1.13;;;;;;;;;;5060236;28;20372;-88
2022/05/29 08:46:05;;;;;;;2.50;1.30;;;;;;;;;;5068732;28;20389;-86
2022/05/29 08:48:32;;;;;;;2.47;1.10;;;;;;;;;;5029996;28;20398;-88
2022/05/29 08:51:05;;;;;;;1.67;0.80;;;;;;;;;;5067033;28;20383;-87
2022/05/29 08:53:41;;;;;;;2.25;1.05;;;;;;;;;;5071705;28;20459;-87
2022/05/29 08:56:19;;;;;;;2.35;1.25;;;;;;;;;;5071629;28;20481;-86
2022/05/29 08:58:45;;;;;;;1.42;0.80;;;;;;;;;;5057402;28;20399;-87
2022/05/29 09:01:26;;;;;;;2.78;0.98;;;;;;;;;;5071730;28;20779;-88
2022/05/29 09:03:54;;;;;;;1.70;1.10;;;;;;;;;;5071544;28;20387;-88
2022/05/29 09:06:20;;;;;;;3.05;1.08;;;;;;;;;;5071582;28;20386;-87
2022/05/29 09:08:50;;;;;;;3.30;1.03;;;;;;;;;;5055616;28;20388;-87
2022/05/29 09:11:21;;;;;;;3.28;0.82;;;;;;;;;;5050621;28;20930;-86
2022/05/29 09:13:53;;;;;;;3.83;1.00;;;;;;;;;;5049903;28;20896;-87
2022/05/29 09:16:23;;;;;;;3.40;0.90;;;;;;;;;;5041410;28;20486;-87
2022/05/29 09:19:13;;;;;;;3.03;0.95;;;;;;;;;;5064569;28;20377;-84
2022/05/29 09:22:01;;;;;;;2.30;0.95;;;;;;;;;;5059097;28;20368;-89
2022/05/29 09:24:40;;;;;;;2.45;1.05;;;;;;;;;;5066942;28;20379;-89
2022/05/29 09:27:06;;;;;;;2.88;0.90;;;;;;;;;;5069642;28;20865;-88
2022/05/29 09:29:34;;;;;;;2.53;1.13;;;;;;;;;;5074931;28;20376;-86
2022/05/29 09:32:00;;;;;;;2.75;0.90;;;;;;;;;;5052985;28;20419;-89
2022/05/29 09:34:26;;;;;;;1.48;0.70;;;;;;;;;;5072960;28;20388;-88
2022/05/29 09:37:07;;;;;;;2.93;0.90;;;;;;;;;;5074674;28;20412;-87
2022/05/29 09:39:36;;;;;;;2.60;0.93;;;;;;;;;;5074686;28;20382;-84
2022/05/29 09:42:06;;;;;;;6.85;1.02;;;;;;;;;;5062209;28;20380;-84
2022/05/29 09:44:32;;;;;;;2.80;1.00;;;;;;;;;;5071061;28;20399;-85
2022/05/29 09:50:02;;;;;;;4.97;1.60;;;;;;;;;;5033471;28;20391;-89
2022/05/29 09:52:41;;;;;;;3.53;1.50;;;;;;;;;;5074508;28;20920;-90
2022/05/29 09:55:10;;;;;;;3.10;1.20;;;;;;;;;;5074784;28;20372;-90
2022/05/29 09:57:39;;;;;;;3.92;1.10;;;;;;;;;;5039418;28;20405;-88
2022/05/29 10:00:08;;;;;;;2.00;0.85;;;;;;;;;;5061556;28;20395;-88
2022/05/29 10:02:39;;;;;;;2.10;0.98;;;;;;;;;;5040618;28;20379;-88
2022/05/29 10:05:07;;;;;;;2.97;1.00;;;;;;;;;;5060252;28;20876;-88
2022/05/29 10:07:40;;;;;;;1.95;0.90;;;;;;;;;;5064211;28;20425;-88
2022/05/29 10:10:12;;;;;;;2.83;0.90;;;;;;;;;;5045078;28;20393;-85
2022/05/29 10:12:41;;;;;;;1.33;0.80;;;;;;;;;;5051515;28;20377;-86
2022/05/29 10:15:13;;;;;;;2.28;1.13;;;;;;;;;;5049506;28;20386;-86
2022/05/29 10:17:40;;;;;;;1.42;1.00;;;;;;;;;;5051180;28;20945;-85
2022/05/29 10:20:25;;;;;;;2.65;1.00;;;;;;;;;;5067185;28;20886;-86
2022/05/29 10:22:55;;;;;;;3.60;1.10;;;;;;;;;;5067384;28;20389;-88
2022/05/29 10:25:29;;;;;;;4.10;1.10;;;;;;;;;;5053255;28;20873;-87
2022/05/29 10:27:57;;;;;;;1.80;1.07;;;;;;;;;;5039370;28;20395;-89
2022/05/29 10:30:31;;;;;;;2.05;0.90;;;;;;;;;;5040011;28;20415;-91
2022/05/29 10:33:04;;;;;;;2.45;0.90;;;;;;;;;;5031206;28;20384;-91
2022/05/29 10:35:35;;;;;;;2.00;0.77;;;;;;;;;;5034181;28;20379;-88
2022/05/29 10:38:27;;;;;;;2.33;0.85;;;;;;;;;;5032882;28;20463;-88
2022/05/29 10:40:55;;;;;;;1.70;0.80;;;;;;;;;;5051661;28;20389;-89
2022/05/29 10:43:37;;;;;;;1.52;0.60;;;;;;;;;;5021642;28;20379;-91
2022/05/29 10:46:12;;;;;;;1.17;0.85;;;;;;;;;;5068700;28;20456;-90
2022/05/29 10:48:42;;;;;;;1.35;0.80;;;;;;;;;;5068989;28;20385;-93
2022/05/29 10:51:22;;;;;;;1.15;0.80;;;;;;;;;;5052177;28;20381;-88
2022/05/29 10:54:05;;;;;;;3.30;0.85;;;;;;;;;;5067397;28;20391;-90
2022/05/29 10:56:34;;;;;;;1.75;1.00;;;;;;;;;;5073854;28;20889;-90
2022/05/29 10:59:06;;;;;;;2.42;1.08;;;;;;;;;;5055193;28;20392;-92
2022/05/29 11:04:45;;;;;;;1.60;1.10;;;;;;;;;;5045526;28;20374;-88
2022/05/29 11:07:11;;;;;;;1.35;1.05;;;;;;;;;;5061296;28;20394;-87
2022/05/29 11:09:46;;;;;;;2.40;1.00;;;;;;;;;;5055316;28;20384;-87
2022/05/29 11:12:24;;;;;;;1.48;1.00;;;;;;;;;;5073084;28;20395;-87
2022/05/29 11:14:54;;;;;;;1.30;0.90;;;;;;;;;;5048600;28;20396;-88
2022/05/29 11:17:38;;;;;;;1.50;1.10;;;;;;;;;;5052530;28;20423;-89
2022/05/29 11:20:28;;;;;;;3.90;1.17;;;;;;;;;;5050542;28;20872;-87
2022/05/29 11:22:54;;;;;;;2.60;1.30;;;;;;;;;;5035772;28;20411;-87
2022/05/29 11:25:26;;;;;;;2.40;1.30;;;;;;;;;;5049070;28;20424;-89
2022/05/29 11:27:52;;;;;;;3.95;1.23;;;;;;;;;;5060380;28;20380;-89
2022/05/29 11:30:44;;;;;;;2.15;1.10;;;;;;;;;;5067058;28;20519;-87
2022/05/29 11:33:16;;;;;;;2.75;1.40;;;;;;;;;;5011028;28;20461;-88
2022/05/29 11:35:45;;;;;;;2.70;1.40;;;;;;;;;;5038160;28;20446;-89
2022/05/29 11:38:14;;;;;;;2.97;1.48;;;;;;;;;;5020037;28;20383;-85
2022/05/29 11:40:45;;;;;;;2.97;1.52;;;;;;;;;;5037670;28;20383;-88
2022/05/29 11:43:14;;;;;;;5.15;1.60;;;;;;;;;;5035919;28;20433;-88
2022/05/29 11:51:28;;;;;;;3.63;1.83;;;;;;;;;;5039070;28;20798;-88
2022/05/29 11:53:54;;;;;;;2.33;1.45;;;;;;;;;;5055050;28;20453;-89
2022/05/29 11:56:30;;;;;;;3.50;1.70;;;;;;;;;;5064388;28;20903;-87
2022/05/29 11:59:06;;;;;;;2.60;1.58;;;;;;;;;;5045901;28;20445;-88
2022/05/29 12:01:38;;;;;;;6.18;1.67;;;;;;;;;;5063187;28;20444;-85
2022/05/29 12:04:27;;;;;;;2.70;1.60;;;;;;;;;;5047912;28;20372;-87
2022/05/29 12:06:55;;;;;;;4.65;1.77;;;;;;;;;;5068916;28;20426;-85
2022/05/29 12:09:36;;;;;;;3.20;1.63;;;;;;;;;;5051270;28;20861;-90
2022/05/29 12:12:07;;;;;;;4.95;2.13;;;;;;;;;;5072104;28;20380;-91
2022/05/29 12:14:39;;;;;;;4.22;2.30;;;;;;;;;;5045959;28;20382;-92
2022/05/29 12:17:13;;;;;;;2.80;2.05;;;;;;;;;;5051480;28;20908;-92
2022/05/29 12:19:44;;;;;;;2.45;1.90;;;;;;;;;;5049269;28;20377;-92
2022/05/29 12:22:11;;;;;;;3.97;2.00;;;;;;;;;;5054607;28;20385;-92
2022/05/29 12:24:41;;;;;;;2.30;1.98;;;;;;;;;;5072436;28;20387;-90
2022/05/29 12:27:21;;;;;;;3.97;1.80;;;;;;;;;;5057572;28;20446;-89
2022/05/29 12:29:50;;;;;;;3.67;2.13;;;;;;;;;;5060888;28;20379;-90
2022/05/29 12:32:20;;;;;;;2.30;1.92;;;;;;;;;;5070626;28;20382;-90
2022/05/29 12:34:57;;;;;;;2.20;1.75;;;;;;;;;;5052012;28;20377;-91
2022/05/29 12:37:41;;;;;;;2.63;1.50;;;;;;;;;;5067004;28;20403;-89
2022/05/29 12:40:07;;;;;;;3.03;1.40;;;;;;;;;;5071878;28;20371;-89
2022/05/29 12:42:42;;;;;;;2.77;1.20;;;;;;;;;;5057640;28;20458;-89
2022/05/29 12:45:21;;;;;;;2.80;1.60;;;;;;;;;;5053795;28;20380;-89
2022/05/29 12:47:53;;;;;;;2.10;1.40;;;;;;;;;;5071810;28;20384;-90
2022/05/29 12:50:25;;;;;;;2.67;1.65;;;;;;;;;;5073484;28;20387;-89
2022/05/29 12:52:51;;;;;;;3.30;1.77;;;;;;;;;;5056810;28;20389;-89
2022/05/29 12:55:29;;;;;;;3.13;1.98;;;;;;;;;;5064641;28;20395;-89
2022/05/29 12:58:08;;;;;;;2.92;2.63;;;;;;;;;;5034754;28;20394;-89
2022/05/29 13:00:37;;;;;;;2.22;1.75;;;;;;;;;;5047921;28;20391;-88
2022/05/29 13:03:21;;;;;;;4.28;1.70;;;;;;;;;;5058792;28;20386;-89
2022/05/29 13:05:51;;;;;;;1.53;1.40;;;;;;;;;;5032627;28;20512;-90
2022/05/29 13:08:17;;;;;;;1.70;1.30;;;;;;;;;;5047623;28;20883;-90
2022/05/29 13:10:44;;;;;;;1.70;1.00;;;;;;;;;;5061207;28;20392;-90
2022/05/29 13:13:12;;;;;;;1.70;1.00;;;;;;;;;;5032349;28;20430;-89
2022/05/29 13:15:39;;;;;;;2.22;0.90;;;;;;;;;;5038646;28;20393;-90
2022/05/29 13:21:04;;;;;;;1.60;0.90;;;;;;;;;;5008360;28;20393;-87
2022/05/29 13:23:32;;;;;;;2.00;1.00;;;;;;;;;;5044100;28;20398;-88
2022/05/29 13:25:58;;;;;;;1.20;1.02;;;;;;;;;;5073332;28;20388;-88
2022/05/29 13:28:28;;;;;;;1.58;0.80;;;;;;;;;;5074748;28;20596;-88
2022/05/29 13:31:12;;;;;;;1.10;1.00;;;;;;;;;;5074479;28;20388;-88
2022/05/29 13:33:45;;;;;;;0.75;0.70;;;;;;;;;;5074714;28;20430;-88
2022/05/29 13:36:31;;;;;;;2.92;1.20;;;;;;;;;;5076854;28;20406;-90
2022/05/29 13:38:57;;;;;;;1.70;1.05;;;;;;;;;;5074587;28;20429;-89
2022/05/29 13:41:50;;;;;;;1.65;0.95;;;;;;;;;;5055341;28;20462;-87
2022/05/29 13:44:34;;;;;;;1.85;0.90;;;;;;;;;;5064713;28;20379;-88
2022/05/29 13:47:19;;;;;;;0.90;0.80;;;;;;;;;;5065237;28;20494;-88
2022/05/29 13:50:02;;;;;;;1.30;0.93;;;;;;;;;;5074571;28;20433;-89
2022/05/29 13:52:30;;;;;;;1.42;1.25;;;;;;;;;;5074433;28;20380;-90
2022/05/29 13:55:20;;;;;;;2.27;1.33;;;;;;;;;;5060591;28;20376;-89
2022/05/29 14:06:40;;;;;;;1.58;1.15;;;;;;;;;;5052949;28;20424;-89
2022/05/29 14:09:12;;;;;;;1.95;1.45;;;;;;;;;;5044604;28;20395;-88
2022/05/29 14:11:47;;;;;;;1.52;1.30;;;;;;;;;;5055036;28;20463;-86
2022/05/29 14:14:37;;;;;;;2.13;1.40;;;;;;;;;;5074331;28;20408;-86
2022/05/29 14:17:22;;;;;;;3.45;1.30;;;;;;;;;;5073899;28;20915;-86
2022/05/29 14:20:07;;;;;;;1.35;1.05;;;;;;;;;;5074111;28;20789;-87
2022/05/29 14:22:51;;;;;;;1.50;1.40;;;;;;;;;;5070136;28;20463;-90
2022/05/29 14:25:47;;;;;;;1.27;0.90;;;;;;;;;;5033415;28;20384;-90
2022/05/29 14:28:20;;;;;;;1.52;1.05;;;;;;;;;;4956014;28;20465;-91
2022/05/29 14:30:53;;;;;;;1.80;0.90;;;;;;;;;;5070196;28;20433;-91
2022/05/29 14:33:37;;;;;;;1.47;1.23;;;;;;;;;;5073221;28;20424;-90
2022/05/29 14:36:03;;;;;;;1.25;1.00;;;;;;;;;;5073094;28;20450;-91
2022/05/29 14:38:48;;;;;;;0.80;0.80;;;;;;;;;;5073104;28;20900;-91
2022/05/29 14:41:24;;;;;;;1.60;0.82;;;;;;;;;;5072966;28;20371;-91
2022/05/29 14:43:50;;;;;;;1.55;0.95;;;;;;;;;;5040567;28;20738;-91
2022/05/29 14:49:13;;;;;;;1.02;0.80;;;;;;;;;;5048976;28;20396;-90
2022/05/29 14:51:45;;;;;;;1.20;0.90;;;;;;;;;;5059664;28;20384;-90
2022/05/29 14:54:17;;;;;;;2.03;0.93;;;;;;;;;;5073134;28;20372;-91
2022/05/29 14:56:52;;;;;;;1.80;1.00;;;;;;;;;;5064815;28;20406;-91
2022/05/29 14:59:23;;;;;;;1.65;0.93;;;;;;;;;;5072536;28;20486;-90
2022/05/29 15:01:54;;;;;;;2.55;1.10;;;;;;;;;;5072592;28;20375;-90
2022/05/29 15:04:23;;;;;;;2.03;0.90;;;;;;;;;;5052122;28;20426;-90
2022/05/29 15:12:35;;;;;;;2.53;1.08;;;;;;;;;;5048564;28;20367;-90
2022/05/29 15:15:20;;;;;;;1.33;0.90;;;;;;;;;;5072474;28;20418;-90
2022/05/29 15:17:46;;;;;;;1.83;1.30;;;;;;;;;;5054334;28;20780;-90
2022/05/29 15:25:55;;;;;;;1.98;1.05;;;;;;;;;;5053165;28;20379;-90
2022/05/29 15:28:22;;;;;;;0.95;0.63;;;;;;;;;;5066821;28;20368;-90
2022/05/29 15:30:48;;;;;;;1.10;0.70;;;;;;;;;;5070309;28;20749;-89
2022/05/29 15:33:14;;;;;;;1.95;1.00;;;;;;;;;;5042617;28;20436;-90
2022/05/29 15:35:48;;;;;;;1.80;1.00;;;;;;;;;;5048842;28;20400;-91
2022/05/29 15:38:14;;;;;;;2.53;1.30;;;;;;;;;;5048002;28;20850;-89
2022/05/29 15:40:43;;;;;;;1.90;0.95;;;;;;;;;;5066654;28;20403;-89
2022/05/29 15:43:18;;;;;;;1.17;0.80;;;;;;;;;;5048321;28;20465;-88
2022/05/29 15:46:02;;;;;;;1.02;0.70;;;;;;;;;;5066465;28;20454;-89
2022/05/29 15:48:44;;;;;;;1.80;0.73;;;;;;;;;;5046476;28;20427;-89
2022/05/29 15:51:14;;;;;;;2.17;0.88;;;;;;;;;;5069095;28;20396;-89
2022/05/29 15:54:00;;;;;;;3.00;1.10;;;;;;;;;;5071968;28;20380;-89
2022/05/29 15:56:31;;;;;;;2.03;0.98;;;;;;;;;;5071911;28;20888;-90
2022/05/29 15:59:18;;;;;;;0.90;0.80;;;;;;;;;;5071849;28;20392;-89
2022/05/29 16:01:55;;;;;;;2.17;0.90;;;;;;;;;;5034879;28;20386;-90